Time;durP1;ratioP1;P1;durP2;ratioP2;P2;SDS_P1;SDS_P2;PMS_P1;PMS_P2;Temp;Humidity;BMP_temperature;BMP_pressure;BME280_temperature;BME280_humidity;BME280_pressure;Samples;Min_cycle;Max_cycle;Signal;HPM_P1;HPM_P2
2023/12/13 00:01:24;;;;;;;0.30;0.30;;;;;;;;;;5051866;28;20735;-81
2023/12/13 00:03:51;;;;;;;0.90;0.40;;;;;;;;;;5051710;28;20442;-81
2023/12/13 00:06:17;;;;;;;0.47;0.40;;;;;;;;;;5051560;28;20396;-81
2023/12/13 00:08:43;;;;;;;0.82;0.40;;;;;;;;;;5051673;28;20380;-81
2023/12/13 00:11:09;;;;;;;0.30;0.30;;;;;;;;;;5051619;28;20377;-81
2023/12/13 00:13:35;;;;;;;0.30;0.30;;;;;;;;;;5051732;28;20392;-81
2023/12/13 00:16:02;;;;;;;0.50;0.20;;;;;;;;;;5051412;28;20435;-81
2023/12/13 00:18:28;;;;;;;2.08;0.50;;;;;;;;;;5051603;28;20376;-81
2023/12/13 00:20:54;;;;;;;1.40;0.40;;;;;;;;;;5051430;28;20435;-81
2023/12/13 00:23:20;;;;;;;0.47;0.30;;;;;;;;;;5051675;28;20408;-81
2023/12/13 00:25:46;;;;;;;0.60;0.32;;;;;;;;;;5051527;28;21063;-81
2023/12/13 00:28:12;;;;;;;0.57;0.30;;;;;;;;;;5051382;28;20386;-81
2023/12/13 00:30:38;;;;;;;0.90;0.40;;;;;;;;;;5063455;28;20450;-81
2023/12/13 00:33:04;;;;;;;0.85;0.52;;;;;;;;;;5067366;28;20375;-81
2023/12/13 00:35:30;;;;;;;0.55;0.50;;;;;;;;;;5065401;28;20377;-81
2023/12/13 00:37:56;;;;;;;0.70;0.50;;;;;;;;;;5051590;28;21006;-81
2023/12/13 00:40:22;;;;;;;0.88;0.40;;;;;;;;;;5051517;28;20385;-81
2023/12/13 00:42:51;;;;;;;1.63;0.50;;;;;;;;;;5051356;28;20416;-81
2023/12/13 00:45:17;;;;;;;1.15;0.73;;;;;;;;;;5053722;28;20393;-81
2023/12/13 00:47:43;;;;;;;3.88;0.55;;;;;;;;;;5055003;28;20405;-81
2023/12/13 00:50:09;;;;;;;2.05;0.50;;;;;;;;;;5055057;28;20480;-81
2023/12/13 00:52:35;;;;;;;1.08;0.70;;;;;;;;;;5060796;28;20464;-81
2023/12/13 00:55:04;;;;;;;1.15;0.50;;;;;;;;;;5044214;28;20439;-81
2023/12/13 00:57:33;;;;;;;1.38;1.00;;;;;;;;;;5068961;28;20464;-81
2023/12/13 00:59:59;;;;;;;1.50;0.68;;;;;;;;;;5054930;28;20527;-81
2023/12/13 01:02:25;;;;;;;1.77;0.70;;;;;;;;;;5054707;28;20488;-81
2023/12/13 01:04:51;;;;;;;1.15;0.60;;;;;;;;;;5054810;28;20381;-81
2023/12/13 01:07:17;;;;;;;1.20;0.50;;;;;;;;;;5068791;28;20380;-81
2023/12/13 01:09:43;;;;;;;0.70;0.30;;;;;;;;;;5054773;28;20409;-81
2023/12/13 01:12:09;;;;;;;1.30;0.50;;;;;;;;;;5054583;28;20738;-81
2023/12/13 01:14:36;;;;;;;2.80;0.67;;;;;;;;;;5054641;28;20497;-81
2023/12/13 01:17:02;;;;;;;1.50;0.60;;;;;;;;;;5054623;28;20385;-81
2023/12/13 01:19:28;;;;;;;1.02;0.60;;;;;;;;;;5054646;28;20468;-81
2023/12/13 01:21:54;;;;;;;1.30;1.00;;;;;;;;;;5054538;28;20413;-81
2023/12/13 01:24:20;;;;;;;0.82;0.60;;;;;;;;;;5068692;28;20383;-81
2023/12/13 01:26:46;;;;;;;1.57;0.57;;;;;;;;;;5056822;28;20390;-81
2023/12/13 01:29:12;;;;;;;0.80;0.40;;;;;;;;;;5056048;28;20385;-81
2023/12/13 01:31:38;;;;;;;2.00;0.40;;;;;;;;;;5070176;28;20853;-81
2023/12/13 01:34:04;;;;;;;1.30;0.60;;;;;;;;;;5074444;28;20392;-81
2023/12/13 01:36:30;;;;;;;1.33;0.63;;;;;;;;;;5059974;28;20456;-81
2023/12/13 01:38:56;;;;;;;1.92;0.57;;;;;;;;;;5060630;28;20416;-81
2023/12/13 01:41:22;;;;;;;1.43;0.43;;;;;;;;;;5074089;28;20383;-81
2023/12/13 01:43:47;;;;;;;0.52;0.20;;;;;;;;;;5074284;28;20895;-81
2023/12/13 01:46:15;;;;;;;1.05;0.30;;;;;;;;;;5063923;28;20389;-81
2023/12/13 01:48:42;;;;;;;1.50;0.40;;;;;;;;;;5053738;28;20413;-81
2023/12/13 01:51:08;;;;;;;2.00;0.40;;;;;;;;;;5053885;28;20446;-81
2023/12/13 01:53:35;;;;;;;0.63;0.30;;;;;;;;;;5054034;28;20378;-81
2023/12/13 01:56:02;;;;;;;0.73;0.22;;;;;;;;;;5060422;28;20384;-81
2023/12/13 01:58:28;;;;;;;0.75;0.38;;;;;;;;;;5060820;28;20388;-81
2023/12/13 02:00:54;;;;;;;0.63;0.32;;;;;;;;;;5053816;28;20457;-81
2023/12/13 02:03:24;;;;;;;0.77;0.40;;;;;;;;;;5053713;28;20441;-81
2023/12/13 02:05:53;;;;;;;0.93;0.45;;;;;;;;;;5057258;28;20398;-81
2023/12/13 02:08:20;;;;;;;0.98;0.40;;;;;;;;;;5063411;28;20378;-81
2023/12/13 02:10:47;;;;;;;0.90;0.30;;;;;;;;;;5053275;28;20373;-81
2023/12/13 02:13:14;;;;;;;1.58;0.47;;;;;;;;;;5053606;28;20472;-81
2023/12/13 02:15:40;;;;;;;1.30;0.40;;;;;;;;;;5067581;28;20378;-81
2023/12/13 02:18:08;;;;;;;1.30;0.40;;;;;;;;;;5053341;28;20385;-81
2023/12/13 02:20:34;;;;;;;0.40;0.30;;;;;;;;;;5053747;28;20871;-81
2023/12/13 02:23:00;;;;;;;1.50;0.40;;;;;;;;;;5053352;28;20484;-81
2023/12/13 02:25:30;;;;;;;1.17;0.60;;;;;;;;;;5053395;28;20841;-81
2023/12/13 02:27:56;;;;;;;1.60;0.82;;;;;;;;;;5053178;28;20381;-81
2023/12/13 02:30:24;;;;;;;0.90;0.75;;;;;;;;;;5063034;28;20407;-81
2023/12/13 02:32:50;;;;;;;1.17;0.70;;;;;;;;;;5069164;28;20525;-81
2023/12/13 02:35:16;;;;;;;1.38;0.80;;;;;;;;;;5054953;28;20472;-81
2023/12/13 02:37:45;;;;;;;1.83;0.95;;;;;;;;;;5052846;28;20723;-81
2023/12/13 02:40:13;;;;;;;2.17;0.80;;;;;;;;;;5069667;28;20376;-81
2023/12/13 02:42:39;;;;;;;0.93;0.70;;;;;;;;;;5072854;28;20498;-81
2023/12/13 02:45:06;;;;;;;0.73;0.70;;;;;;;;;;5072070;28;20510;-81
2023/12/13 02:47:32;;;;;;;0.98;0.68;;;;;;;;;;5052620;28;20460;-81
2023/12/13 02:49:58;;;;;;;1.75;1.00;;;;;;;;;;5066037;28;20372;-81
2023/12/13 02:52:24;;;;;;;0.77;0.60;;;;;;;;;;5053682;28;20476;-81
2023/12/13 02:54:50;;;;;;;1.27;1.00;;;;;;;;;;5053114;28;20392;-81
2023/12/13 02:57:16;;;;;;;1.35;1.00;;;;;;;;;;5066582;28;20919;-81
2023/12/13 02:59:42;;;;;;;1.63;1.30;;;;;;;;;;5052864;28;20395;-81
2023/12/13 03:02:08;;;;;;;2.05;1.50;;;;;;;;;;5052706;28;20405;-81
2023/12/13 03:04:33;;;;;;;1.80;1.42;;;;;;;;;;5052768;28;20410;-81
2023/12/13 03:07:00;;;;;;;1.95;1.20;;;;;;;;;;5064924;28;20767;-81
2023/12/13 03:09:26;;;;;;;1.90;1.10;;;;;;;;;;5053028;28;20782;-81
2023/12/13 03:11:52;;;;;;;1.60;0.68;;;;;;;;;;5063898;28;20383;-81
2023/12/13 03:14:18;;;;;;;1.67;0.80;;;;;;;;;;5061232;28;20814;-81
2023/12/13 03:16:44;;;;;;;1.02;0.80;;;;;;;;;;5052241;28;20385;-81
2023/12/13 03:19:10;;;;;;;1.10;0.70;;;;;;;;;;5052453;28;20401;-81
2023/12/13 03:21:36;;;;;;;0.70;0.60;;;;;;;;;;5052425;28;20456;-81
2023/12/13 03:24:02;;;;;;;0.80;0.60;;;;;;;;;;5052232;28;20791;-81
2023/12/13 03:26:28;;;;;;;2.30;0.70;;;;;;;;;;5051972;28;20460;-81
2023/12/13 03:28:54;;;;;;;1.97;0.67;;;;;;;;;;5057174;28;20771;-81
2023/12/13 03:31:20;;;;;;;1.20;0.60;;;;;;;;;;5066085;28;20420;-81
2023/12/13 03:33:46;;;;;;;0.50;0.50;;;;;;;;;;5066169;28;20377;-81
2023/12/13 03:36:17;;;;;;;0.70;0.50;;;;;;;;;;5054162;28;20397;-81
2023/12/13 03:38:44;;;;;;;0.60;0.60;;;;;;;;;;5056548;28;20707;-81
2023/12/13 03:41:10;;;;;;;0.50;0.50;;;;;;;;;;5072162;28;20443;-81
2023/12/13 03:43:36;;;;;;;1.05;0.50;;;;;;;;;;5072085;28;20786;-81
2023/12/13 03:46:02;;;;;;;1.25;0.43;;;;;;;;;;5063910;28;20846;-81
2023/12/13 03:48:28;;;;;;;1.10;0.50;;;;;;;;;;5051742;28;20409;-81
2023/12/13 03:50:54;;;;;;;0.77;0.50;;;;;;;;;;5052757;28;20748;-81
2023/12/13 03:53:20;;;;;;;0.65;0.50;;;;;;;;;;5052288;28;20373;-81
2023/12/13 03:55:46;;;;;;;0.90;0.50;;;;;;;;;;5057235;28;20429;-81
2023/12/13 03:58:12;;;;;;;1.00;0.68;;;;;;;;;;5061519;28;20382;-81
2023/12/13 04:00:38;;;;;;;1.00;0.40;;;;;;;;;;5052188;28;20389;-81
2023/12/13 04:03:04;;;;;;;0.50;0.40;;;;;;;;;;5052172;28;20424;-81
2023/12/13 04:05:30;;;;;;;0.50;0.50;;;;;;;;;;5053205;28;20443;-81
2023/12/13 04:07:56;;;;;;;0.90;0.50;;;;;;;;;;5065524;28;20381;-81
2023/12/13 04:10:22;;;;;;;0.70;0.40;;;;;;;;;;5052282;28;20472;-81
2023/12/13 04:12:48;;;;;;;0.90;0.75;;;;;;;;;;5065971;28;20603;-81
2023/12/13 04:15:14;;;;;;;0.60;0.60;;;;;;;;;;5051818;28;20475;-81
2023/12/13 04:17:40;;;;;;;0.60;0.60;;;;;;;;;;5051591;28;20894;-81
2023/12/13 04:20:06;;;;;;;0.97;0.70;;;;;;;;;;5055882;28;20385;-81
2023/12/13 04:22:32;;;;;;;1.38;0.55;;;;;;;;;;5056775;28;20491;-81
2023/12/13 04:24:58;;;;;;;0.40;0.40;;;;;;;;;;5068698;28;20409;-81
2023/12/13 04:27:24;;;;;;;0.60;0.60;;;;;;;;;;5055891;28;20881;-81
2023/12/13 04:29:50;;;;;;;0.50;0.50;;;;;;;;;;5060976;28;20462;-81
2023/12/13 04:32:16;;;;;;;0.70;0.70;;;;;;;;;;5071304;28;20803;-81
2023/12/13 04:34:43;;;;;;;1.92;1.50;;;;;;;;;;5062342;28;20712;-81
2023/12/13 04:37:10;;;;;;;1.90;1.70;;;;;;;;;;5055363;28;20517;-81
2023/12/13 04:39:36;;;;;;;2.40;2.10;;;;;;;;;;5055518;28;20916;-81
2023/12/13 04:42:03;;;;;;;1.80;1.60;;;;;;;;;;5055302;28;20417;-81
2023/12/13 04:44:30;;;;;;;2.40;1.10;;;;;;;;;;5055480;28;20373;-81
2023/12/13 04:46:56;;;;;;;1.23;1.00;;;;;;;;;;5054917;28;20437;-81
2023/12/13 04:49:22;;;;;;;1.45;0.93;;;;;;;;;;5055320;28;20381;-81
2023/12/13 04:51:48;;;;;;;1.88;1.00;;;;;;;;;;5055173;28;20381;-81
2023/12/13 04:54:15;;;;;;;1.05;0.90;;;;;;;;;;5055170;28;20446;-81
2023/12/13 04:56:43;;;;;;;1.30;1.10;;;;;;;;;;5054653;28;20421;-81
2023/12/13 04:59:09;;;;;;;1.38;1.27;;;;;;;;;;5056087;28;20385;-81
2023/12/13 05:01:35;;;;;;;1.20;1.10;;;;;;;;;;5064393;28;20743;-81
2023/12/13 05:04:01;;;;;;;1.30;1.10;;;;;;;;;;5055060;28;20435;-81
2023/12/13 05:06:27;;;;;;;1.00;0.90;;;;;;;;;;5055043;28;20757;-81
2023/12/13 05:08:53;;;;;;;1.40;0.90;;;;;;;;;;5054790;28;20381;-81
2023/12/13 05:11:19;;;;;;;1.27;1.00;;;;;;;;;;5055281;28;20858;-81
2023/12/13 05:13:45;;;;;;;1.40;0.80;;;;;;;;;;5055227;28;20385;-81
2023/12/13 05:16:11;;;;;;;1.48;0.80;;;;;;;;;;5054829;28;20377;-81
2023/12/13 05:18:37;;;;;;;1.02;0.75;;;;;;;;;;5054833;28;20378;-81
2023/12/13 05:21:03;;;;;;;0.70;0.50;;;;;;;;;;5054933;28;20385;-81
2023/12/13 05:23:29;;;;;;;1.23;0.77;;;;;;;;;;5054906;28;20460;-81
2023/12/13 05:25:55;;;;;;;0.65;0.63;;;;;;;;;;5054932;28;20378;-81
2023/12/13 05:28:21;;;;;;;1.30;0.80;;;;;;;;;;5054845;28;20456;-81
2023/12/13 05:30:47;;;;;;;1.00;0.68;;;;;;;;;;5054630;28;20468;-81
2023/12/13 05:33:13;;;;;;;0.82;0.60;;;;;;;;;;5059265;28;20384;-81
2023/12/13 05:35:39;;;;;;;0.55;0.50;;;;;;;;;;5055418;28;20377;-81
2023/12/13 05:38:05;;;;;;;1.27;0.50;;;;;;;;;;5060170;28;20388;-81
2023/12/13 05:40:31;;;;;;;1.20;0.70;;;;;;;;;;5054203;28;20384;-81
2023/12/13 05:42:58;;;;;;;1.45;1.00;;;;;;;;;;5054417;28;20767;-81
2023/12/13 05:45:24;;;;;;;0.85;0.80;;;;;;;;;;5069764;28;20464;-80
2023/12/13 05:47:50;;;;;;;1.23;0.90;;;;;;;;;;5054945;28;20425;-80
2023/12/13 05:50:16;;;;;;;0.98;0.70;;;;;;;;;;5054880;28;21228;-80
2023/12/13 05:52:42;;;;;;;1.50;0.73;;;;;;;;;;5054775;28;20389;-80
2023/12/13 05:55:08;;;;;;;1.05;0.60;;;;;;;;;;5069166;28;20949;-80
2023/12/13 05:57:34;;;;;;;0.80;0.35;;;;;;;;;;5055166;28;20847;-80
2023/12/13 06:00:01;;;;;;;0.60;0.40;;;;;;;;;;5055628;28;20382;-80
2023/12/13 06:02:27;;;;;;;1.52;0.40;;;;;;;;;;5055200;28;20427;-80
2023/12/13 06:04:53;;;;;;;0.50;0.33;;;;;;;;;;5055194;28;20378;-80
2023/12/13 06:07:19;;;;;;;1.30;0.40;;;;;;;;;;5054325;28;20377;-80
2023/12/13 06:09:45;;;;;;;0.30;0.30;;;;;;;;;;5054901;28;20378;-80
2023/12/13 06:12:13;;;;;;;0.55;0.40;;;;;;;;;;5054421;28;20385;-80
2023/12/13 06:14:39;;;;;;;0.40;0.30;;;;;;;;;;5054603;28;20409;-80
2023/12/13 06:17:05;;;;;;;0.57;0.40;;;;;;;;;;5054389;28;20759;-80
2023/12/13 06:19:32;;;;;;;0.75;0.30;;;;;;;;;;5054490;28;20394;-80
2023/12/13 06:21:58;;;;;;;0.90;0.30;;;;;;;;;;5054398;28;20799;-80
2023/12/13 06:24:24;;;;;;;0.35;0.28;;;;;;;;;;5053998;28;20378;-80
2023/12/13 06:26:50;;;;;;;0.45;0.20;;;;;;;;;;5054040;28;20453;-80
2023/12/13 06:29:16;;;;;;;0.97;0.40;;;;;;;;;;5053685;28;20381;-80
2023/12/13 06:31:43;;;;;;;1.40;0.40;;;;;;;;;;5056578;28;20378;-80
2023/12/13 06:34:09;;;;;;;0.53;0.30;;;;;;;;;;5065162;28;20413;-80
2023/12/13 06:36:35;;;;;;;0.68;0.20;;;;;;;;;;5053583;28;20836;-80
2023/12/13 06:39:04;;;;;;;0.60;0.30;;;;;;;;;;5053795;28;20466;-80
2023/12/13 06:41:30;;;;;;;1.30;0.40;;;;;;;;;;5053028;28;20381;-80
2023/12/13 06:43:56;;;;;;;0.20;0.20;;;;;;;;;;5058991;28;20404;-80
2023/12/13 06:46:23;;;;;;;0.47;0.40;;;;;;;;;;5063761;28;20393;-80
2023/12/13 06:48:49;;;;;;;1.00;0.40;;;;;;;;;;5054238;28;20401;-80
2023/12/13 06:51:15;;;;;;;0.30;0.30;;;;;;;;;;5054321;28;20478;-80
2023/12/13 06:53:41;;;;;;;0.45;0.28;;;;;;;;;;5055279;28;20385;-80
2023/12/13 06:56:07;;;;;;;0.30;0.30;;;;;;;;;;5067135;28;20385;-80
2023/12/13 06:58:34;;;;;;;0.60;0.22;;;;;;;;;;5054433;28;20385;-80
2023/12/13 07:01:01;;;;;;;0.60;0.40;;;;;;;;;;5054020;28;20373;-80
2023/12/13 07:03:27;;;;;;;1.52;0.50;;;;;;;;;;5053689;28;20784;-80
2023/12/13 07:05:53;;;;;;;0.82;0.50;;;;;;;;;;5064742;28;20373;-80
2023/12/13 07:08:19;;;;;;;1.00;0.40;;;;;;;;;;5054077;28;20385;-80
2023/12/13 07:10:45;;;;;;;0.70;0.35;;;;;;;;;;5053307;28;20460;-80
2023/12/13 07:13:11;;;;;;;0.57;0.38;;;;;;;;;;5053365;28;20468;-80
2023/12/13 07:15:37;;;;;;;0.30;0.30;;;;;;;;;;5053338;28;20883;-80
2023/12/13 07:18:03;;;;;;;0.50;0.32;;;;;;;;;;5052933;28;20400;-80
2023/12/13 07:20:30;;;;;;;0.22;0.20;;;;;;;;;;5054290;28;20477;-80
2023/12/13 07:22:57;;;;;;;0.70;0.40;;;;;;;;;;5056477;28;20431;-80
2023/12/13 07:25:23;;;;;;;0.90;0.70;;;;;;;;;;5054762;28;20377;-80
2023/12/13 07:27:49;;;;;;;0.77;0.65;;;;;;;;;;5056424;28;20397;-80
2023/12/13 07:30:15;;;;;;;0.80;0.60;;;;;;;;;;5056255;28;20386;-80
2023/12/13 07:32:41;;;;;;;1.50;0.50;;;;;;;;;;5066584;28;20387;-80
2023/12/13 07:35:10;;;;;;;0.60;0.60;;;;;;;;;;5073517;28;20385;-80
2023/12/13 07:37:37;;;;;;;0.50;0.50;;;;;;;;;;5056318;28;20413;-80
2023/12/13 07:40:05;;;;;;;1.10;0.60;;;;;;;;;;5057684;28;20843;-80
2023/12/13 07:42:31;;;;;;;1.93;0.40;;;;;;;;;;5055811;28;20439;-80
2023/12/13 07:44:57;;;;;;;1.23;0.63;;;;;;;;;;5055885;28;20373;-80
2023/12/13 07:47:24;;;;;;;0.98;0.70;;;;;;;;;;5055845;28;20863;-80
2023/12/13 07:49:50;;;;;;;0.87;0.70;;;;;;;;;;5055226;28;20853;-80
2023/12/13 07:52:16;;;;;;;1.80;1.02;;;;;;;;;;5054931;28;20839;-80
2023/12/13 07:54:44;;;;;;;1.20;0.90;;;;;;;;;;5064845;28;20379;-80
2023/12/13 07:57:10;;;;;;;0.70;0.67;;;;;;;;;;5059470;28;20417;-80
2023/12/13 07:59:36;;;;;;;1.13;0.82;;;;;;;;;;5063735;28;20449;-79
2023/12/13 08:02:04;;;;;;;2.80;0.85;;;;;;;;;;5061022;28;20499;-80
2023/12/13 08:04:30;;;;;;;1.60;0.80;;;;;;;;;;5062626;28;20445;-79
2023/12/13 08:06:56;;;;;;;0.90;0.63;;;;;;;;;;5062102;28;20439;-80
2023/12/13 08:09:23;;;;;;;2.28;0.80;;;;;;;;;;5059314;28;20873;-81
2023/12/13 08:11:49;;;;;;;1.27;0.75;;;;;;;;;;5073787;28;20761;-81
2023/12/13 08:14:15;;;;;;;1.47;0.87;;;;;;;;;;5059201;28;20456;-81
2023/12/13 08:16:42;;;;;;;1.23;0.77;;;;;;;;;;5056520;28;20427;-81
2023/12/13 08:19:08;;;;;;;0.80;0.80;;;;;;;;;;5055661;28;20423;-81
2023/12/13 08:21:40;;;;;;;1.00;0.63;;;;;;;;;;5062881;28;20734;-81
2023/12/13 08:24:06;;;;;;;1.45;0.70;;;;;;;;;;5061675;28;20388;-81
2023/12/13 08:26:32;;;;;;;1.02;0.60;;;;;;;;;;5055479;28;20456;-81
2023/12/13 08:28:58;;;;;;;0.80;0.60;;;;;;;;;;5056595;28;20409;-81
2023/12/13 08:31:24;;;;;;;2.13;0.52;;;;;;;;;;5056093;28;20378;-81
2023/12/13 08:33:50;;;;;;;1.83;0.57;;;;;;;;;;5070703;28;20701;-81
2023/12/13 08:36:16;;;;;;;1.60;0.65;;;;;;;;;;5056812;28;20388;-81
2023/12/13 08:38:42;;;;;;;2.50;0.90;;;;;;;;;;5056522;28;20385;-81
2023/12/13 08:41:09;;;;;;;1.27;0.85;;;;;;;;;;5056488;28;20377;-81
2023/12/13 08:43:35;;;;;;;1.05;0.60;;;;;;;;;;5056190;28;20405;-81
2023/12/13 08:46:01;;;;;;;2.05;0.70;;;;;;;;;;5055834;28;20380;-81
2023/12/13 08:48:28;;;;;;;1.15;0.75;;;;;;;;;;5055129;28;20401;-81
2023/12/13 08:50:54;;;;;;;1.50;0.60;;;;;;;;;;5055345;28;20383;-81
2023/12/13 08:53:20;;;;;;;1.15;0.63;;;;;;;;;;5054023;28;20457;-80
2023/12/13 08:55:46;;;;;;;0.57;0.50;;;;;;;;;;5069677;28;20413;-80
2023/12/13 08:58:13;;;;;;;2.10;0.65;;;;;;;;;;5055506;28;20389;-81
2023/12/13 09:00:39;;;;;;;0.90;0.80;;;;;;;;;;5070639;28;20491;-80
2023/12/13 09:03:05;;;;;;;1.60;0.50;;;;;;;;;;5065909;28;20409;-81
2023/12/13 09:05:31;;;;;;;1.20;0.55;;;;;;;;;;5056505;28;20814;-81
2023/12/13 09:07:57;;;;;;;2.05;1.30;;;;;;;;;;5058669;28;20461;-81
2023/12/13 09:10:23;;;;;;;2.47;1.10;;;;;;;;;;5058973;28;20470;-81
2023/12/13 09:12:50;;;;;;;2.00;1.30;;;;;;;;;;5073326;28;20392;-81
2023/12/13 09:15:19;;;;;;;2.25;0.90;;;;;;;;;;5059055;28;20387;-81
2023/12/13 09:17:46;;;;;;;1.70;0.98;;;;;;;;;;5058834;28;20847;-81
2023/12/13 09:20:14;;;;;;;1.35;1.00;;;;;;;;;;5059219;28;20385;-81
2023/12/13 09:22:42;;;;;;;1.17;0.60;;;;;;;;;;5058829;28;20493;-81
2023/12/13 09:25:08;;;;;;;0.73;0.68;;;;;;;;;;5059050;28;20382;-81
2023/12/13 09:27:34;;;;;;;0.80;0.70;;;;;;;;;;5073975;28;20372;-81
2023/12/13 09:30:00;;;;;;;1.38;0.73;;;;;;;;;;5076125;28;20894;-81
2023/12/13 09:32:26;;;;;;;1.30;0.80;;;;;;;;;;5075456;28;20443;-81
2023/12/13 09:34:52;;;;;;;0.75;0.70;;;;;;;;;;5064894;28;20931;-81
2023/12/13 09:37:18;;;;;;;1.00;0.70;;;;;;;;;;5058629;28;20452;-81
2023/12/13 09:39:45;;;;;;;1.85;0.60;;;;;;;;;;5071676;28;20391;-81
2023/12/13 09:42:12;;;;;;;1.08;0.60;;;;;;;;;;5059706;28;20433;-81
2023/12/13 09:44:39;;;;;;;0.63;0.63;;;;;;;;;;5058617;28;20385;-81
2023/12/13 09:47:05;;;;;;;1.70;0.70;;;;;;;;;;5063005;28;20484;-81
2023/12/13 09:49:32;;;;;;;1.25;0.80;;;;;;;;;;5058805;28;20420;-81
2023/12/13 09:52:00;;;;;;;1.88;1.08;;;;;;;;;;5057575;28;20385;-80
2023/12/13 09:54:26;;;;;;;1.02;0.85;;;;;;;;;;5066169;28;20864;-81
2023/12/13 09:56:52;;;;;;;1.35;1.00;;;;;;;;;;5064719;28;20385;-81
2023/12/13 09:59:18;;;;;;;1.60;1.23;;;;;;;;;;5063853;28;20410;-81
2023/12/13 10:01:44;;;;;;;1.20;0.98;;;;;;;;;;5066026;28;20431;-81
2023/12/13 10:04:10;;;;;;;1.23;0.90;;;;;;;;;;5057972;28;20893;-81
2023/12/13 10:06:36;;;;;;;0.93;0.63;;;;;;;;;;5058130;28;20465;-80
2023/12/13 10:09:03;;;;;;;1.05;0.90;;;;;;;;;;5058499;28;20397;-80
2023/12/13 10:11:30;;;;;;;1.10;0.80;;;;;;;;;;5066791;28;20372;-80
2023/12/13 10:13:56;;;;;;;2.72;1.17;;;;;;;;;;5064261;28;20863;-80
2023/12/13 10:16:22;;;;;;;1.20;0.80;;;;;;;;;;5058299;28;20863;-80
2023/12/13 10:18:48;;;;;;;1.02;0.60;;;;;;;;;;5058028;28;20485;-80
2023/12/13 10:21:14;;;;;;;1.25;0.75;;;;;;;;;;5057734;28;20875;-80
2023/12/13 10:23:43;;;;;;;1.10;0.60;;;;;;;;;;5057328;28;20492;-80
2023/12/13 10:26:09;;;;;;;1.10;0.60;;;;;;;;;;5057298;28;20378;-80
2023/12/13 10:28:36;;;;;;;1.80;0.57;;;;;;;;;;5065802;28;20372;-81
2023/12/13 10:31:03;;;;;;;0.95;0.60;;;;;;;;;;5062271;28;20385;-80
2023/12/13 10:33:29;;;;;;;1.10;0.68;;;;;;;;;;5071309;28;20388;-80
2023/12/13 10:35:57;;;;;;;0.93;0.52;;;;;;;;;;5056081;28;20381;-79
2023/12/13 10:38:25;;;;;;;0.50;0.50;;;;;;;;;;5053204;28;20377;-79
2023/12/13 10:40:52;;;;;;;0.93;0.57;;;;;;;;;;5056250;28;20411;-79
2023/12/13 10:43:19;;;;;;;0.50;0.50;;;;;;;;;;5056091;28;20406;-79
2023/12/13 10:45:51;;;;;;;1.00;0.60;;;;;;;;;;5069773;28;20423;-79
2023/12/13 10:48:17;;;;;;;0.73;0.52;;;;;;;;;;5038538;28;20779;-79
2023/12/13 10:50:48;;;;;;;1.30;0.40;;;;;;;;;;5056646;28;20476;-79
2023/12/13 10:53:16;;;;;;;1.00;0.60;;;;;;;;;;5068467;28;20372;-79
2023/12/13 10:55:43;;;;;;;0.60;0.50;;;;;;;;;;5058295;28;20704;-80
2023/12/13 10:58:09;;;;;;;1.30;0.60;;;;;;;;;;5055884;28;20496;-79
2023/12/13 11:00:36;;;;;;;1.47;0.70;;;;;;;;;;5055936;28;20415;-79
2023/12/13 11:03:07;;;;;;;1.50;0.70;;;;;;;;;;5062988;28;20422;-80
2023/12/13 11:05:33;;;;;;;0.82;0.63;;;;;;;;;;5061349;28;20405;-80
2023/12/13 11:07:59;;;;;;;0.70;0.40;;;;;;;;;;5056057;28;20377;-80
2023/12/13 11:10:25;;;;;;;0.90;0.73;;;;;;;;;;5055782;28;20720;-79
2023/12/13 11:12:51;;;;;;;0.50;0.40;;;;;;;;;;5056054;28;20465;-80
2023/12/13 11:15:18;;;;;;;0.50;0.50;;;;;;;;;;5055770;28;20389;-79
2023/12/13 11:17:46;;;;;;;1.20;0.60;;;;;;;;;;5069438;28;20385;-79
2023/12/13 11:20:13;;;;;;;1.30;0.70;;;;;;;;;;5055697;28;20449;-79
2023/12/13 11:22:42;;;;;;;0.73;0.60;;;;;;;;;;5054938;28;20468;-79
2023/12/13 11:25:08;;;;;;;0.52;0.50;;;;;;;;;;5065981;28;20379;-79
2023/12/13 11:27:34;;;;;;;0.55;0.40;;;;;;;;;;5060894;28;20382;-79
2023/12/13 11:30:12;;;;;;;0.90;0.50;;;;;;;;;;5055436;28;20381;-80
2023/12/13 11:32:38;;;;;;;0.60;0.60;;;;;;;;;;5065408;28;20465;-80
2023/12/13 11:35:14;;;;;;;1.40;0.70;;;;;;;;;;5059206;28;20389;-79
2023/12/13 11:37:40;;;;;;;0.80;0.60;;;;;;;;;;5055364;28;20419;-79
2023/12/13 11:40:06;;;;;;;0.98;0.50;;;;;;;;;;5055315;28;20397;-79
2023/12/13 11:42:32;;;;;;;1.25;0.47;;;;;;;;;;5055276;28;20907;-79
2023/12/13 11:44:59;;;;;;;1.15;0.82;;;;;;;;;;5069595;28;20391;-79
2023/12/13 11:47:25;;;;;;;1.27;1.00;;;;;;;;;;5069388;28;21069;-79
2023/12/13 11:49:51;;;;;;;0.70;0.40;;;;;;;;;;5054232;28;20401;-79
2023/12/13 11:52:17;;;;;;;0.57;0.40;;;;;;;;;;5055396;28;20724;-79
2023/12/13 11:54:43;;;;;;;0.20;0.20;;;;;;;;;;5067827;28;20435;-79
2023/12/13 11:57:15;;;;;;;0.75;0.60;;;;;;;;;;5058862;28;20475;-79
2023/12/13 11:59:42;;;;;;;0.93;0.65;;;;;;;;;;5063690;28;20380;-78
2023/12/13 12:02:08;;;;;;;0.60;0.50;;;;;;;;;;5057494;28;21052;-78
2023/12/13 12:04:35;;;;;;;1.05;0.50;;;;;;;;;;5052354;28;20723;-78
2023/12/13 12:07:01;;;;;;;0.52;0.40;;;;;;;;;;5065029;28;20371;-78
2023/12/13 12:09:27;;;;;;;0.93;0.60;;;;;;;;;;5052043;28;20462;-78
2023/12/13 12:11:54;;;;;;;0.40;0.40;;;;;;;;;;5051437;28;20382;-78
2023/12/13 12:14:20;;;;;;;0.95;0.50;;;;;;;;;;5051322;28;20423;-78
2023/12/13 12:16:46;;;;;;;1.00;0.65;;;;;;;;;;5051453;28;20374;-78
2023/12/13 12:19:12;;;;;;;1.00;0.40;;;;;;;;;;5065354;28;20740;-78
2023/12/13 12:21:39;;;;;;;0.55;0.50;;;;;;;;;;5051550;28;20373;-78
2023/12/13 12:24:05;;;;;;;2.10;0.50;;;;;;;;;;5051479;28;20806;-78
2023/12/13 12:26:31;;;;;;;0.90;0.57;;;;;;;;;;5051150;28;20461;-78
2023/12/13 12:28:58;;;;;;;0.93;0.60;;;;;;;;;;5051306;28;20922;-78
2023/12/13 12:31:24;;;;;;;0.90;0.70;;;;;;;;;;5051204;28;20405;-78
2023/12/13 12:33:57;;;;;;;0.70;0.60;;;;;;;;;;5065410;28;20428;-78
2023/12/13 12:36:23;;;;;;;0.50;0.50;;;;;;;;;;5064355;28;20390;-78
2023/12/13 12:38:49;;;;;;;0.90;0.57;;;;;;;;;;5052629;28;20396;-79
2023/12/13 12:41:15;;;;;;;0.43;0.40;;;;;;;;;;5055174;28;20393;-78
2023/12/13 12:43:42;;;;;;;0.68;0.60;;;;;;;;;;5070516;28;20928;-79
2023/12/13 12:46:08;;;;;;;1.48;0.90;;;;;;;;;;5057523;28;20397;-79
2023/12/13 12:48:34;;;;;;;0.43;0.38;;;;;;;;;;5057468;28;20409;-79
2023/12/13 12:51:00;;;;;;;0.77;0.50;;;;;;;;;;5058019;28;20882;-79
2023/12/13 12:53:26;;;;;;;0.77;0.60;;;;;;;;;;5040126;28;20390;-79
2023/12/13 12:55:54;;;;;;;0.77;0.70;;;;;;;;;;5058495;28;20393;-79
2023/12/13 12:58:20;;;;;;;1.92;0.90;;;;;;;;;;5057347;28;20443;-79
2023/12/13 13:00:46;;;;;;;1.10;0.70;;;;;;;;;;5057161;28;20390;-79
2023/12/13 13:03:12;;;;;;;1.63;1.13;;;;;;;;;;5057283;28;20975;-79
2023/12/13 13:05:38;;;;;;;1.63;0.98;;;;;;;;;;5052788;28;20388;-79
2023/12/13 13:08:04;;;;;;;2.15;0.52;;;;;;;;;;5057267;28;20382;-80
2023/12/13 13:10:30;;;;;;;0.60;0.45;;;;;;;;;;5057507;28;20751;-80
2023/12/13 13:12:56;;;;;;;0.60;0.60;;;;;;;;;;5057408;28;20859;-80
2023/12/13 13:15:23;;;;;;;0.50;0.40;;;;;;;;;;5057492;28;20385;-79
2023/12/13 13:17:49;;;;;;;0.88;0.50;;;;;;;;;;5070786;28;20530;-80
2023/12/13 13:20:18;;;;;;;0.52;0.45;;;;;;;;;;5055449;28;20389;-79
2023/12/13 13:22:44;;;;;;;1.58;0.50;;;;;;;;;;5057528;28;20413;-79
2023/12/13 13:25:11;;;;;;;0.63;0.52;;;;;;;;;;5057492;28;20369;-79
2023/12/13 13:27:37;;;;;;;0.50;0.50;;;;;;;;;;5058253;28;20401;-80
2023/12/13 13:30:04;;;;;;;0.50;0.50;;;;;;;;;;5067289;28;20922;-79
2023/12/13 13:32:31;;;;;;;1.70;0.60;;;;;;;;;;5066105;28;20406;-79
2023/12/13 13:34:59;;;;;;;0.60;0.43;;;;;;;;;;5061691;28;20381;-80
2023/12/13 13:37:25;;;;;;;1.02;0.45;;;;;;;;;;5057059;28;20423;-80
2023/12/13 13:39:51;;;;;;;9.67;0.80;;;;;;;;;;5057200;28;20433;-80
2023/12/13 13:42:17;;;;;;;0.45;0.45;;;;;;;;;;5063121;28;20407;-79
2023/12/13 13:44:43;;;;;;;0.53;0.30;;;;;;;;;;5065120;28;20497;-80
2023/12/13 13:47:09;;;;;;;0.75;0.40;;;;;;;;;;5074122;28;20487;-80
2023/12/13 13:49:35;;;;;;;0.50;0.30;;;;;;;;;;5076056;28;20380;-80
2023/12/13 13:52:02;;;;;;;0.77;0.50;;;;;;;;;;5063060;28;20390;-79
2023/12/13 13:54:30;;;;;;;0.50;0.32;;;;;;;;;;5050830;28;20385;-79
2023/12/13 13:56:56;;;;;;;1.13;0.60;;;;;;;;;;5054407;28;20386;-78
2023/12/13 13:59:22;;;;;;;1.13;0.63;;;;;;;;;;5062989;28;20402;-79
2023/12/13 14:01:50;;;;;;;0.77;0.47;;;;;;;;;;5064707;28;20397;-79
2023/12/13 14:04:16;;;;;;;0.50;0.50;;;;;;;;;;5059122;28;20712;-79
2023/12/13 14:06:42;;;;;;;1.40;0.60;;;;;;;;;;5056063;28;20386;-79
2023/12/13 14:09:09;;;;;;;0.30;0.30;;;;;;;;;;5055800;28;20417;-79
2023/12/13 14:11:35;;;;;;;0.40;0.25;;;;;;;;;;5056211;28;20452;-78
2023/12/13 14:14:04;;;;;;;0.80;0.32;;;;;;;;;;5055500;28;20467;-78
2023/12/13 14:16:30;;;;;;;0.52;0.32;;;;;;;;;;5062517;28;20383;-79
2023/12/13 14:18:57;;;;;;;0.45;0.30;;;;;;;;;;5062192;28;21183;-78
2023/12/13 14:21:25;;;;;;;0.70;0.50;;;;;;;;;;5054489;28;20743;-78
2023/12/13 14:23:51;;;;;;;0.65;0.52;;;;;;;;;;5061250;28;20822;-78
2023/12/13 14:26:17;;;;;;;1.00;0.50;;;;;;;;;;5058654;28;20379;-78
2023/12/13 14:28:43;;;;;;;0.90;0.50;;;;;;;;;;5065184;28;20427;-78
2023/12/13 14:31:10;;;;;;;0.38;0.35;;;;;;;;;;5055596;28;20381;-79
2023/12/13 14:33:36;;;;;;;1.08;0.30;;;;;;;;;;5069101;28;20451;-78
2023/12/13 14:36:02;;;;;;;1.50;0.50;;;;;;;;;;5054950;28;20404;-79
2023/12/13 14:38:28;;;;;;;1.10;0.60;;;;;;;;;;5055389;28;20387;-79